createdAt,value
2019-03-19T00:00:39.542Z,129.13
2019-03-19T00:03:10.512Z,128.37
2019-03-19T00:05:41.599Z,127.23
2019-03-19T00:08:12.695Z,127.77
2019-03-19T00:10:43.724Z,131.50
2019-03-19T00:13:16.106Z,129.17
2019-03-19T00:15:47.155Z,127.17
2019-03-19T00:18:20.967Z,127.67
2019-03-19T00:20:52.048Z,127.13
2019-03-19T00:23:23.042Z,128.10
2019-03-19T00:25:54.193Z,126.43
2019-03-19T00:28:25.230Z,130.80
2019-03-19T00:30:56.288Z,128.17
2019-03-19T00:33:27.305Z,127.37
2019-03-19T00:35:58.405Z,127.50
2019-03-19T00:38:29.541Z,127.73
2019-03-19T00:41:00.587Z,127.63
2019-03-19T00:43:31.636Z,127.40
2019-03-19T00:46:02.755Z,130.07
2019-03-19T00:48:33.770Z,126.43
2019-03-19T00:51:05.999Z,127.23
2019-03-19T00:53:37.024Z,128.20
2019-03-19T00:56:08.223Z,128.17
2019-03-19T00:58:39.405Z,126.80
2019-03-19T01:01:12.084Z,128.53
2019-03-19T01:03:43.165Z,128.33
2019-03-19T01:06:14.315Z,128.07
2019-03-19T01:08:45.378Z,126.80
2019-03-19T01:11:16.633Z,126.90
2019-03-19T01:13:47.745Z,128.03
2019-03-19T01:16:18.838Z,128.90
2019-03-19T01:18:50.017Z,127.17
2019-03-19T01:21:21.397Z,129.30
2019-03-19T01:23:52.404Z,130.23
2019-03-19T01:26:26.573Z,128.13
2019-03-19T01:28:57.687Z,127.07
2019-03-19T01:31:28.901Z,127.97
2019-03-19T01:33:59.856Z,126.70
2019-03-19T01:36:30.964Z,128.33
2019-03-19T01:39:02.087Z,128.20
2019-03-19T01:41:34.260Z,126.43
2019-03-19T01:44:05.217Z,126.30
2019-03-19T01:46:36.389Z,126.67
2019-03-19T01:49:07.436Z,129.23
2019-03-19T01:51:38.514Z,128.03
2019-03-19T01:54:09.647Z,128.23
2019-03-19T01:56:40.717Z,126.67
2019-03-19T01:59:11.640Z,128.47
2019-03-19T02:01:42.904Z,126.90
2019-03-19T02:04:13.856Z,128.07
2019-03-19T02:06:44.901Z,129.43
2019-03-19T02:09:15.981Z,129.47
2019-03-19T02:11:47.039Z,126.47
2019-03-19T02:14:18.154Z,128.10
2019-03-19T02:16:49.204Z,127.50
2019-03-19T02:19:20.188Z,127.63
2019-03-19T02:21:54.695Z,127.60
2019-03-19T02:24:36.773Z,127.97
2019-03-19T02:27:19.736Z,128.87
2019-03-19T02:30:05.247Z,127.47
2019-03-19T02:32:36.432Z,128.63
2019-03-19T02:35:08.390Z,127.60
2019-03-19T02:37:39.438Z,129.10
2019-03-19T02:40:10.899Z,127.93
2019-03-19T02:42:41.956Z,129.00
2019-03-19T02:45:13.914Z,128.23
2019-03-19T02:47:44.976Z,127.27
2019-03-19T02:50:16.088Z,127.93
2019-03-19T02:52:47.237Z,128.20
2019-03-19T02:55:19.372Z,128.40
2019-03-19T02:57:50.464Z,128.30
2019-03-19T03:00:21.604Z,127.73
2019-03-19T03:02:52.814Z,129.03
2019-03-19T03:05:23.957Z,127.90
2019-03-19T03:07:55.011Z,129.10
2019-03-19T03:10:26.130Z,130.50
2019-03-19T03:12:57.305Z,127.87
2019-03-19T03:15:28.484Z,128.03
2019-03-19T03:17:59.718Z,130.83
2019-03-19T03:20:31.341Z,127.90
2019-03-19T03:23:02.526Z,127.93
2019-03-19T03:25:33.951Z,129.83
2019-03-19T03:28:05.117Z,127.33
2019-03-19T03:30:42.698Z,128.27
2019-03-19T03:33:26.559Z,127.67
2019-03-19T03:35:58.086Z,130.40
2019-03-19T03:38:37.756Z,128.67
2019-03-19T03:41:11.993Z,131.47
2019-03-19T03:43:52.355Z,131.67
2019-03-19T03:46:25.990Z,128.50
2019-03-19T03:49:02.426Z,129.93
2019-03-19T03:51:34.311Z,128.90
2019-03-19T03:54:10.825Z,130.43
2019-03-19T03:57:00.942Z,132.57
2019-03-19T03:59:22.620Z,130.47
2019-03-19T04:02:02.418Z,129.77
2019-03-19T04:04:38.730Z,135.73
2019-03-19T04:07:18.479Z,132.00
2019-03-19T04:09:52.203Z,130.17
2019-03-19T04:12:29.914Z,129.37
2019-03-19T04:15:06.484Z,129.67
2019-03-19T04:17:43.801Z,133.23
2019-03-19T04:20:16.503Z,130.73
2019-03-19T04:22:51.796Z,134.33
2019-03-19T04:25:38.774Z,130.37
2019-03-19T04:28:12.495Z,129.47
2019-03-19T04:30:46.512Z,130.10
2019-03-19T04:33:29.585Z,131.00
2019-03-19T04:36:01.672Z,133.87
2019-03-19T04:38:37.668Z,130.17
2019-03-19T04:41:24.146Z,130.37
2019-03-19T04:43:57.020Z,128.10
2019-03-19T04:46:29.781Z,129.33
2019-03-19T04:49:02.788Z,130.30
2019-03-19T04:51:34.091Z,130.63
2019-03-19T04:54:06.993Z,129.60
2019-03-19T04:56:43.151Z,129.30
2019-03-19T04:59:14.456Z,128.70
2019-03-19T05:01:45.566Z,132.00
2019-03-19T05:04:16.566Z,134.07
2019-03-19T05:06:48.799Z,131.03
2019-03-19T05:09:23.461Z,139.97
2019-03-19T05:11:58.707Z,132.13
2019-03-19T05:26:57.190Z,142.50
2019-03-19T05:29:26.847Z,133.30
2019-03-19T05:31:56.555Z,132.77
2019-03-19T05:34:26.215Z,134.30
2019-03-19T05:36:55.884Z,133.77
2019-03-19T05:39:25.547Z,133.60
2019-03-19T05:41:55.223Z,137.43
2019-03-19T05:44:24.991Z,140.40
2019-03-19T05:46:54.654Z,137.87
2019-03-19T05:49:24.315Z,146.30
2019-03-19T05:51:53.986Z,132.10
2019-03-19T05:54:23.642Z,129.67
2019-03-19T05:56:53.312Z,136.23
2019-03-19T05:59:22.971Z,127.20
2019-03-19T06:01:52.670Z,150.07
2019-03-19T06:04:22.318Z,129.57
2019-03-19T06:06:51.992Z,128.37
2019-03-19T06:09:21.698Z,129.60
2019-03-19T06:11:51.462Z,132.27
2019-03-19T06:14:21.327Z,129.13
2019-03-19T06:16:51.004Z,129.17
2019-03-19T06:19:20.660Z,140.80
2019-03-19T06:21:50.322Z,129.40
2019-03-19T06:24:21.157Z,129.70
2019-03-19T06:26:50.886Z,130.63
2019-03-19T06:29:20.547Z,127.83
2019-03-19T06:31:50.261Z,130.73
2019-03-19T06:34:19.911Z,129.07
2019-03-19T06:36:49.623Z,134.10
2019-03-19T06:39:19.295Z,131.47
2019-03-19T06:41:48.959Z,141.90
2019-03-19T06:44:18.626Z,131.33
2019-03-19T06:46:48.355Z,128.30
2019-03-19T06:49:18.026Z,130.87
2019-03-19T06:51:47.684Z,131.87
2019-03-19T06:54:17.351Z,130.90
2019-03-19T06:56:47.019Z,129.90
2019-03-19T06:59:16.682Z,130.07
2019-03-19T07:01:46.347Z,135.67
2019-03-19T07:04:17.154Z,129.80
2019-03-19T07:06:46.835Z,132.00
2019-03-19T07:09:16.502Z,139.30
2019-03-19T07:11:46.172Z,129.70
2019-03-19T07:14:15.899Z,131.27
2019-03-19T07:16:46.707Z,131.47
2019-03-19T07:19:16.380Z,134.70
2019-03-19T07:21:46.031Z,133.40
2019-03-19T07:24:15.690Z,132.97
2019-03-19T07:26:45.347Z,137.87
2019-03-19T07:29:15.008Z,132.40
2019-03-19T07:31:44.683Z,137.07
2019-03-19T07:34:14.394Z,137.03
2019-03-19T07:36:45.225Z,135.17
2019-03-19T07:39:14.901Z,140.37
2019-03-19T07:41:44.551Z,136.30
2019-03-19T07:44:14.231Z,133.13
2019-03-19T07:46:45.867Z,134.17
2019-03-19T07:49:15.344Z,135.53
2019-03-19T07:51:46.090Z,135.97
2019-03-19T07:54:15.763Z,136.97
2019-03-19T07:56:45.419Z,137.00
2019-03-19T07:59:15.091Z,135.87
2019-03-19T08:01:44.767Z,137.87
2019-03-19T08:04:14.436Z,137.57
2019-03-19T08:06:44.174Z,137.03
2019-03-19T08:09:13.915Z,136.47
2019-03-19T08:11:43.580Z,137.43
2019-03-19T08:14:13.335Z,137.87
2019-03-19T08:16:43.089Z,138.83
2019-03-19T08:19:12.763Z,137.70
2019-03-19T08:21:42.426Z,138.70
2019-03-19T08:24:12.095Z,140.60
2019-03-19T08:26:41.756Z,137.60
2019-03-19T08:29:11.442Z,137.17
2019-03-19T08:31:41.126Z,139.47
2019-03-19T08:34:10.799Z,141.27
2019-03-19T08:36:40.553Z,139.87
2019-03-19T08:39:10.219Z,140.20
2019-03-19T08:41:39.884Z,140.53
2019-03-19T08:44:09.595Z,138.33
2019-03-19T08:46:39.383Z,139.87
2019-03-19T08:49:09.059Z,139.17
2019-03-19T08:51:38.736Z,143.40
2019-03-19T08:54:08.415Z,142.37
2019-03-19T08:56:38.075Z,139.00
2019-03-19T08:59:07.755Z,138.33
2019-03-19T09:01:37.428Z,137.50
2019-03-19T09:04:07.098Z,138.47
2019-03-19T09:06:36.764Z,140.20
2019-03-19T09:09:08.947Z,137.70
2019-03-19T09:11:38.737Z,135.17
2019-03-19T09:14:08.484Z,138.30
2019-03-19T09:16:38.138Z,138.17
2019-03-19T09:19:07.896Z,141.97
2019-03-19T09:21:37.625Z,138.67
2019-03-19T09:24:07.372Z,141.50
2019-03-19T09:26:37.036Z,140.33
2019-03-19T09:29:16.478Z,141.00
2019-03-19T09:31:38.211Z,140.63
2019-03-19T09:34:07.899Z,141.03
2019-03-19T09:36:37.642Z,139.53
2019-03-19T09:39:08.739Z,140.83
2019-03-19T09:41:38.552Z,139.33
2019-03-19T09:44:08.295Z,139.90
2019-03-19T09:46:37.952Z,138.60
2019-03-19T09:49:07.623Z,137.40
2019-03-19T09:51:37.302Z,138.53
2019-03-19T09:54:06.972Z,141.30
2019-03-19T09:56:36.630Z,138.80
2019-03-19T09:59:06.325Z,137.33
2019-03-19T10:01:36.142Z,137.27
2019-03-19T10:04:05.834Z,137.13
2019-03-19T10:06:35.504Z,136.73
2019-03-19T10:09:08.131Z,137.13
2019-03-19T10:11:37.806Z,136.43
2019-03-19T10:14:07.482Z,137.10
2019-03-19T10:16:37.279Z,135.83
2019-03-19T10:19:06.947Z,135.17
2019-03-19T10:21:36.607Z,136.00
2019-03-19T10:24:06.551Z,136.87
2019-03-19T10:26:37.183Z,134.83
2019-03-19T10:29:07.526Z,136.00
2019-03-19T10:31:37.212Z,134.40
2019-03-19T10:34:06.988Z,135.53
2019-03-19T10:36:36.671Z,135.57
2019-03-19T10:39:09.133Z,133.73
2019-03-19T10:41:39.194Z,133.73
2019-03-19T10:44:08.867Z,135.00
2019-03-19T10:46:38.535Z,133.83
2019-03-19T10:49:08.270Z,134.13
2019-03-19T10:51:38.022Z,134.53
2019-03-19T10:54:07.674Z,133.10
2019-03-19T10:56:38.902Z,133.60
2019-03-19T10:59:08.779Z,132.97
2019-03-19T11:01:38.462Z,135.77
2019-03-19T11:04:08.198Z,134.03
2019-03-19T11:06:37.875Z,133.83
2019-03-19T11:09:08.244Z,134.53
2019-03-19T11:11:37.969Z,133.33
2019-03-19T11:14:07.715Z,132.63
2019-03-19T11:16:37.379Z,133.13
2019-03-19T11:19:07.049Z,132.37
2019-03-19T11:21:36.719Z,134.63
2019-03-19T11:24:06.450Z,133.77
2019-03-19T11:26:36.119Z,132.97
2019-03-19T11:29:05.928Z,134.60
2019-03-19T11:31:35.603Z,134.37
2019-03-19T11:34:05.414Z,133.90
2019-03-19T11:36:35.090Z,133.70
2019-03-19T11:39:08.406Z,133.97
2019-03-19T11:41:38.225Z,137.70
2019-03-19T11:44:07.959Z,134.27
2019-03-19T11:46:37.639Z,133.47
2019-03-19T11:49:07.367Z,134.67
2019-03-19T11:51:37.034Z,133.27
2019-03-19T11:54:06.702Z,133.20
2019-03-19T11:56:36.383Z,134.13
2019-03-19T11:59:06.119Z,133.80
2019-03-19T12:01:35.810Z,133.40
2019-03-19T12:04:05.568Z,133.57
2019-03-19T12:06:35.264Z,135.17
2019-03-19T12:09:08.047Z,134.53
2019-03-19T12:11:37.727Z,133.83
2019-03-19T12:14:07.406Z,133.10
2019-03-19T12:16:37.091Z,132.90
2019-03-19T12:19:06.840Z,133.07
2019-03-19T12:21:36.522Z,132.50
2019-03-19T12:24:06.288Z,133.80
2019-03-19T12:26:36.043Z,132.40
2019-03-19T12:29:05.727Z,132.80
2019-03-19T12:31:35.446Z,133.33
2019-03-19T12:34:05.295Z,132.73
2019-03-19T12:36:34.983Z,132.03
2019-03-19T12:39:09.668Z,134.07
2019-03-19T12:41:39.350Z,133.93
2019-03-19T12:44:09.023Z,134.23
2019-03-19T12:46:38.702Z,132.40
2019-03-19T12:49:08.383Z,133.13
2019-03-19T12:51:38.067Z,133.30
2019-03-19T12:54:07.815Z,132.97
2019-03-19T12:56:37.498Z,135.00
2019-03-19T12:59:07.172Z,132.60
2019-03-19T13:01:36.952Z,132.80
2019-03-19T13:04:07.978Z,134.63
2019-03-19T13:06:38.641Z,133.67
2019-03-19T13:09:08.593Z,132.57
2019-03-19T13:11:39.420Z,132.23
2019-03-19T13:14:09.178Z,132.43
2019-03-19T13:16:38.867Z,132.47
2019-03-19T13:19:08.547Z,132.17
2019-03-19T13:21:38.307Z,133.80
2019-03-19T13:24:07.982Z,132.33
2019-03-19T13:26:37.671Z,134.00
2019-03-19T13:29:07.348Z,135.13
2019-03-19T13:31:37.040Z,132.47
2019-03-19T13:34:06.719Z,132.43
2019-03-19T13:36:36.415Z,133.17
2019-03-19T13:39:08.386Z,133.77
2019-03-19T13:41:38.152Z,132.17
2019-03-19T13:44:07.891Z,133.53
2019-03-19T13:46:37.584Z,132.60
2019-03-19T13:49:07.259Z,133.70
2019-03-19T13:51:36.945Z,133.10
2019-03-19T13:54:06.639Z,132.93
2019-03-19T13:56:36.395Z,134.23
2019-03-19T13:59:06.061Z,134.80
2019-03-19T14:01:35.749Z,132.30
2019-03-19T14:04:05.501Z,133.33
2019-03-19T14:06:35.191Z,133.10
2019-03-19T14:09:08.065Z,133.53
2019-03-19T14:11:37.795Z,133.60
2019-03-19T14:14:07.547Z,137.43
2019-03-19T14:16:37.227Z,134.23
2019-03-19T14:19:06.986Z,133.60
2019-03-19T14:21:36.739Z,137.70
2019-03-19T14:24:06.418Z,134.47
2019-03-19T14:26:36.100Z,134.27
2019-03-19T14:29:05.972Z,139.07
2019-03-19T14:31:35.664Z,138.77
2019-03-19T14:34:05.599Z,153.97
2019-03-19T14:36:35.279Z,149.07
2019-03-19T14:39:08.493Z,136.27
2019-03-19T14:41:38.253Z,135.13
2019-03-19T14:44:09.001Z,134.10
2019-03-19T14:46:38.677Z,134.10
2019-03-19T14:49:08.359Z,134.00
2019-03-19T14:51:38.195Z,135.00
2019-03-19T14:54:10.466Z,136.10
2019-03-19T14:56:39.456Z,135.67
2019-03-19T14:59:09.227Z,137.17
2019-03-19T15:01:38.907Z,150.60
2019-03-19T15:04:08.595Z,136.37
2019-03-19T15:06:38.274Z,134.60
2019-03-19T15:09:08.027Z,137.70
2019-03-19T15:11:37.947Z,137.73
2019-03-19T15:14:07.711Z,138.57
2019-03-19T15:16:37.412Z,139.07
2019-03-19T15:19:07.139Z,141.70
2019-03-19T15:21:36.911Z,140.70
2019-03-19T15:24:06.599Z,133.80
2019-03-19T15:26:36.351Z,133.83
2019-03-19T15:29:06.040Z,137.33
2019-03-19T15:31:35.712Z,134.00
2019-03-19T15:34:05.554Z,133.10
2019-03-19T15:36:35.228Z,133.63
2019-03-19T15:39:07.635Z,133.00
2019-03-19T15:41:37.306Z,134.47
2019-03-19T15:44:06.987Z,133.20
2019-03-19T15:46:36.666Z,132.27
2019-03-19T15:49:06.353Z,132.97
2019-03-19T15:51:36.023Z,133.17
2019-03-19T15:54:05.998Z,132.50
2019-03-19T15:56:35.670Z,134.07
2019-03-19T15:59:05.360Z,133.30
2019-03-19T16:01:40.431Z,133.07
2019-03-19T16:04:06.421Z,133.90
2019-03-19T16:06:36.091Z,133.30
2019-03-19T16:09:08.463Z,133.73
2019-03-19T16:11:38.127Z,133.13
2019-03-19T16:14:07.808Z,133.47
2019-03-19T16:16:37.567Z,134.40
2019-03-19T16:19:07.260Z,134.40
2019-03-19T16:21:37.044Z,134.83
2019-03-19T16:24:06.813Z,134.73
2019-03-19T16:26:36.864Z,137.03
2019-03-19T16:29:06.542Z,134.20
2019-03-19T16:31:36.291Z,132.97
2019-03-19T16:34:06.052Z,133.67
2019-03-19T16:36:35.729Z,133.03
2019-03-19T16:39:07.301Z,133.63
2019-03-19T16:41:37.047Z,135.07
2019-03-19T16:44:06.869Z,134.77
2019-03-19T16:46:36.519Z,134.37
2019-03-19T16:49:06.278Z,135.97
2019-03-19T16:51:36.011Z,136.07
2019-03-19T16:54:05.764Z,137.73
2019-03-19T16:56:35.565Z,133.80
2019-03-19T16:59:05.307Z,134.13
2019-03-19T17:01:34.987Z,134.63
2019-03-19T17:04:05.025Z,135.23
2019-03-19T17:06:34.771Z,134.57
2019-03-19T17:09:07.399Z,135.57
2019-03-19T17:11:37.095Z,137.60
2019-03-19T17:14:06.853Z,136.43
2019-03-19T17:16:36.537Z,137.23
2019-03-19T17:19:06.296Z,137.63
2019-03-19T17:21:35.994Z,141.17
2019-03-19T17:24:06.050Z,150.63
2019-03-19T17:26:35.795Z,151.77
2019-03-19T17:29:05.542Z,133.13
2019-03-19T17:31:35.279Z,134.80
2019-03-19T17:34:06.153Z,132.63
2019-03-19T17:36:35.840Z,132.17
2019-03-19T17:39:07.959Z,130.83
2019-03-19T17:41:37.774Z,132.43
2019-03-19T17:44:07.455Z,132.67
2019-03-19T17:46:37.131Z,130.17
2019-03-19T17:49:06.855Z,131.77
2019-03-19T17:51:36.631Z,130.57
2019-03-19T17:54:06.391Z,130.57
2019-03-19T17:56:49.707Z,130.87
2019-03-19T17:59:19.387Z,137.37
2019-03-19T18:01:49.076Z,132.60
2019-03-19T18:04:18.771Z,132.03
2019-03-19T18:06:48.439Z,136.70
2019-03-19T18:09:18.130Z,137.80
2019-03-19T18:11:47.798Z,136.20
2019-03-19T18:14:17.479Z,138.13
2019-03-19T18:16:47.153Z,132.67
2019-03-19T18:19:16.835Z,131.37
2019-03-19T18:21:46.503Z,131.07
2019-03-19T18:24:16.203Z,134.03
2019-03-19T18:26:45.895Z,135.57
2019-03-19T18:29:15.588Z,132.83
2019-03-19T18:31:45.270Z,132.37
2019-03-19T18:34:15.051Z,133.07
2019-03-19T18:36:44.891Z,133.97
2019-03-19T18:39:14.575Z,143.53
2019-03-19T18:41:44.265Z,130.30
2019-03-19T18:44:13.954Z,130.03
2019-03-19T18:46:43.636Z,129.83
2019-03-19T18:49:13.400Z,134.73
2019-03-19T18:51:43.070Z,132.83
2019-03-19T18:54:12.943Z,129.40
2019-03-19T18:56:42.636Z,130.20
2019-03-19T18:59:12.340Z,128.00
2019-03-19T19:01:42.596Z,129.77
2019-03-19T19:04:12.282Z,131.80
2019-03-19T19:06:41.954Z,127.57
2019-03-19T19:09:11.743Z,129.50
2019-03-19T19:11:41.571Z,126.40
2019-03-19T19:14:11.257Z,129.20
2019-03-19T19:16:40.934Z,126.83
2019-03-19T19:19:10.624Z,126.87
2019-03-19T19:21:40.302Z,125.27
2019-03-19T19:24:09.979Z,126.13
2019-03-19T19:26:39.675Z,125.83
2019-03-19T19:29:09.350Z,125.73
2019-03-19T19:31:39.037Z,124.50
2019-03-19T19:34:08.704Z,133.10
2019-03-19T19:36:38.417Z,127.40
2019-03-19T19:39:08.695Z,123.47
2019-03-19T19:41:38.378Z,123.40
2019-03-19T19:44:08.067Z,125.83
2019-03-19T19:46:38.064Z,126.83
2019-03-19T19:49:07.783Z,126.90
2019-03-19T19:51:37.475Z,123.07
2019-03-19T19:54:07.218Z,123.03
2019-03-19T19:56:37.892Z,128.07
2019-03-19T19:59:07.583Z,126.80
2019-03-19T20:01:38.242Z,124.77
2019-03-19T20:04:07.920Z,125.90
2019-03-19T20:06:37.611Z,132.73
2019-03-19T20:09:08.416Z,131.27
2019-03-19T20:11:38.718Z,128.70
2019-03-19T20:14:08.558Z,130.63
2019-03-19T20:16:38.318Z,122.57
2019-03-19T20:19:07.996Z,125.23
2019-03-19T20:21:37.775Z,128.10
2019-03-19T20:24:07.445Z,122.67
2019-03-19T20:26:37.201Z,126.73
2019-03-19T20:29:14.215Z,123.37
2019-03-19T20:31:43.903Z,123.53
2019-03-19T20:34:13.635Z,124.43
2019-03-19T20:36:53.469Z,127.60
2019-03-19T20:39:23.150Z,125.03
2019-03-19T20:41:52.939Z,123.20
2019-03-19T20:44:22.611Z,126.70
2019-03-19T20:46:52.301Z,130.13
2019-03-19T20:49:22.061Z,125.83
2019-03-19T20:51:51.827Z,126.33
2019-03-19T20:54:22.488Z,122.80
2019-03-19T20:56:52.251Z,126.10
2019-03-19T20:59:22.493Z,125.17
2019-03-19T21:01:52.234Z,123.90
2019-03-19T21:04:21.915Z,127.60
2019-03-19T21:06:51.679Z,124.97
2019-03-19T21:09:21.360Z,122.27
2019-03-19T21:11:53.265Z,130.17
2019-03-19T21:14:22.690Z,125.07
2019-03-19T21:16:52.452Z,122.83
2019-03-19T21:19:22.135Z,124.83
2019-03-19T21:21:51.823Z,125.57
2019-03-19T21:24:21.574Z,126.17
2019-03-19T21:26:51.243Z,126.80
2019-03-19T21:29:20.919Z,130.53
2019-03-19T21:31:50.618Z,129.43
2019-03-19T21:34:20.294Z,123.33
2019-03-19T21:36:50.005Z,129.43
2019-03-19T21:39:19.715Z,126.47
2019-03-19T21:41:49.407Z,126.50
2019-03-19T21:44:19.087Z,123.07
2019-03-19T21:46:48.767Z,124.67
2019-03-19T21:49:18.519Z,128.07
2019-03-19T21:51:48.209Z,125.60
2019-03-19T21:54:17.961Z,125.07
2019-03-19T21:56:47.646Z,123.43
2019-03-19T21:59:17.402Z,127.43
2019-03-19T22:01:47.093Z,126.40
2019-03-19T22:04:16.822Z,124.50
2019-03-19T22:06:46.514Z,123.13
2019-03-19T22:09:16.202Z,125.17
2019-03-19T22:11:45.879Z,134.30
2019-03-19T22:14:15.559Z,123.23
2019-03-19T22:16:45.403Z,125.10
2019-03-19T22:19:15.098Z,123.50
2019-03-19T22:21:44.791Z,122.63
2019-03-19T22:24:14.486Z,125.47
2019-03-19T22:26:44.182Z,127.13
2019-03-19T22:29:13.936Z,121.80
2019-03-19T22:31:43.625Z,121.73
2019-03-19T22:34:14.281Z,125.20
2019-03-19T22:36:44.340Z,124.27
2019-03-19T22:39:14.014Z,125.43
2019-03-19T22:41:43.702Z,124.40
2019-03-19T22:44:13.391Z,123.77
2019-03-19T22:46:43.073Z,126.47
2019-03-19T22:49:12.885Z,136.00
2019-03-19T22:51:42.579Z,126.37
2019-03-19T22:54:13.416Z,131.23
2019-03-19T22:56:44.074Z,125.33
2019-03-19T22:59:13.851Z,129.23
2019-03-19T23:01:44.836Z,125.13
2019-03-19T23:04:14.582Z,125.30
2019-03-19T23:06:44.273Z,123.90
2019-03-19T23:09:14.023Z,123.03
2019-03-19T23:11:43.711Z,124.47
2019-03-19T23:14:13.451Z,120.53
2019-03-19T23:16:43.210Z,125.07
2019-03-19T23:19:12.960Z,124.30
2019-03-19T23:21:42.723Z,132.67
2019-03-19T23:24:12.397Z,131.30
2019-03-19T23:26:42.087Z,122.37
2019-03-19T23:29:11.839Z,124.37
2019-03-19T23:31:41.528Z,123.67
2019-03-19T23:34:11.267Z,127.97
2019-03-19T23:36:40.958Z,120.07
2019-03-19T23:39:10.647Z,125.17
2019-03-19T23:41:40.330Z,119.90
2019-03-19T23:44:10.015Z,122.03
2019-03-19T23:46:39.771Z,122.47
2019-03-19T23:49:09.443Z,126.87
2019-03-19T23:51:39.203Z,121.83
2019-03-19T23:54:08.919Z,121.43
2019-03-19T23:56:38.655Z,120.03
2019-03-19T23:59:08.330Z,122.17
